Time;durP1;ratioP1;P1;durP2;ratioP2;P2;SDS_P1;SDS_P2;PMS_P1;PMS_P2;Temp;Humidity;BMP_temperature;BMP_pressure;BME280_temperature;BME280_humidity;BME280_pressure;Samples;Min_cycle;Max_cycle;Signal;HPM_P1;HPM_P2
2021/07/03 00:01:14;;;;;;;8.23;7.40;;;16.00;99.90;;;;;;5073750;28;20174;-53
2021/07/03 00:03:40;;;;;;;8.43;7.30;;;15.90;99.90;;;;;;5072874;28;20206;-49
2021/07/03 00:06:05;;;;;;;8.77;7.20;;;15.90;99.90;;;;;;5076855;28;20618;-52
2021/07/03 00:08:31;;;;;;;8.30;6.93;;;15.80;99.90;;;;;;5078392;28;20190;-49
2021/07/03 00:10:58;;;;;;;8.40;7.53;;;15.80;99.90;;;;;;5078159;28;20254;-52
2021/07/03 00:13:24;;;;;;;8.50;7.60;;;15.70;99.90;;;;;;5076985;28;20190;-58
2021/07/03 00:15:50;;;;;;;8.13;7.33;;;15.70;99.90;;;;;;5077742;28;20178;-60
2021/07/03 00:18:15;;;;;;;6.70;6.10;;;15.80;99.90;;;;;;5076774;28;20547;-55
2021/07/03 00:20:41;;;;;;;5.77;5.27;;;15.80;99.90;;;;;;5077845;28;20201;-57
2021/07/03 00:23:07;;;;;;;5.50;5.00;;;15.80;99.90;;;;;;5077825;28;20198;-57
2021/07/03 00:25:34;;;;;;;4.27;3.97;;;15.70;99.90;;;;;;5076811;28;20559;-59
2021/07/03 00:27:59;;;;;;;7.00;4.80;;;15.70;99.90;;;;;;5077275;28;20205;-59
2021/07/03 00:30:25;;;;;;;9.00;4.67;;;15.80;99.90;;;;;;5077602;28;20178;-55
2021/07/03 00:32:50;;;;;;;13.23;6.03;;;15.80;99.90;;;;;;5076198;28;20173;-59
2021/07/03 00:35:16;;;;;;;4.40;4.10;;;15.70;99.90;;;;;;5077778;28;20182;-51
2021/07/03 00:37:42;;;;;;;4.30;3.90;;;15.80;99.90;;;;;;5075999;28;20225;-52
2021/07/03 00:40:08;;;;;;;4.83;4.43;;;15.70;99.90;;;;;;5077853;28;20642;-49
2021/07/03 00:42:34;;;;;;;4.53;4.13;;;15.70;99.90;;;;;;5075960;28;20626;-52
2021/07/03 00:45:00;;;;;;;3.83;3.53;;;15.80;99.90;;;;;;5077215;28;20687;-53
2021/07/03 00:47:25;;;;;;;4.57;4.17;;;15.70;99.90;;;;;;5077132;28;20203;-53
2021/07/03 00:49:51;;;;;;;4.03;3.73;;;15.60;99.90;;;;;;5076183;28;20169;-56
2021/07/03 00:52:17;;;;;;;4.57;4.17;;;15.60;99.90;;;;;;5076789;28;20601;-53
2021/07/03 00:54:44;;;;;;;4.63;4.23;;;15.60;99.90;;;;;;5074970;28;20688;-51
2021/07/03 00:57:10;;;;;;;5.47;4.43;;;15.60;99.90;;;;;;5077057;28;20205;-53
2021/07/03 00:59:41;;;;;;;5.90;5.30;;;15.70;99.90;;;;;;5076963;28;20167;-50
2021/07/03 01:02:08;;;;;;;5.27;4.80;;;15.60;99.90;;;;;;5076495;28;20212;-58
2021/07/03 01:04:35;;;;;;;5.63;5.13;;;15.60;99.90;;;;;;5077693;28;20163;-56
2021/07/03 01:07:01;;;;;;;6.57;5.40;;;15.70;99.90;;;;;;5075662;28;20298;-55
2021/07/03 01:09:27;;;;;;;5.60;5.10;;;15.60;99.90;;;;;;5076559;28;20244;-52
2021/07/03 01:11:53;;;;;;;8.23;5.40;;;15.60;99.90;;;;;;5075858;28;20190;-54
2021/07/03 01:14:19;;;;;;;5.47;4.97;;;15.50;99.90;;;;;;5076612;28;20175;-55
2021/07/03 01:16:46;;;;;;;4.93;4.47;;;15.50;99.90;;;;;;5075921;28;20203;-50
2021/07/03 01:19:12;;;;;;;5.80;5.20;;;15.50;99.90;;;;;;5076572;28;20175;-55
2021/07/03 01:21:38;;;;;;;7.37;6.67;;;15.50;99.90;;;;;;5076336;28;20174;-56
2021/07/03 01:24:04;;;;;;;8.00;6.60;;;15.40;99.90;;;;;;5075535;28;20325;-51
2021/07/03 01:26:44;;;;;;;8.70;7.87;;;15.50;99.90;;;;;;5076645;28;20176;-49
2021/07/03 01:29:10;;;;;;;7.77;7.03;;;15.50;99.90;;;;;;5075494;28;20623;-50
2021/07/03 01:31:38;;;;;;;8.27;7.47;;;15.50;99.90;;;;;;5076346;28;20218;-52
2021/07/03 01:34:04;;;;;;;8.57;7.77;;;15.60;99.90;;;;;;5075224;28;20236;-52
2021/07/03 01:36:29;;;;;;;7.90;7.10;;;15.60;99.90;;;;;;5075983;28;20170;-50
2021/07/03 01:38:55;;;;;;;8.90;7.57;;;15.70;99.90;;;;;;5075876;28;20175;-54
2021/07/03 01:41:20;;;;;;;9.57;8.03;;;15.70;99.90;;;;;;5075638;28;20634;-51
2021/07/03 01:43:46;;;;;;;9.73;8.73;;;15.70;99.90;;;;;;5076058;28;20194;-52
2021/07/03 01:46:11;;;;;;;9.80;8.80;;;15.70;99.90;;;;;;5075111;28;20193;-51
2021/07/03 01:48:38;;;;;;;10.97;9.87;;;15.70;99.90;;;;;;5066734;28;20210;-53
2021/07/03 01:51:04;;;;;;;9.10;8.20;;;15.70;99.90;;;;;;5054303;28;20175;-55
2021/07/03 01:53:30;;;;;;;9.77;8.87;;;15.70;99.90;;;;;;5055826;28;20180;-55
2021/07/03 01:55:55;;;;;;;8.93;8.13;;;15.70;99.90;;;;;;5056049;28;20304;-55
2021/07/03 01:58:23;;;;;;;8.47;7.63;;;15.70;99.90;;;;;;5054757;28;20234;-49
2021/07/03 02:00:50;;;;;;;8.83;7.67;;;15.70;99.90;;;;;;5056183;28;20607;-50
2021/07/03 02:03:15;;;;;;;8.00;7.20;;;15.70;99.90;;;;;;5054574;28;20205;-49
2021/07/03 02:05:43;;;;;;;8.07;7.27;;;15.70;99.90;;;;;;5055729;28;20171;-53
2021/07/03 02:08:09;;;;;;;8.17;7.30;;;15.70;99.90;;;;;;5055576;28;20241;-50
2021/07/03 02:10:34;;;;;;;8.03;7.23;;;15.70;99.90;;;;;;5055518;28;20178;-52
2021/07/03 02:13:00;;;;;;;9.50;7.50;;;15.70;99.90;;;;;;5054381;28;20191;-56
2021/07/03 02:15:25;;;;;;;9.17;6.90;;;15.70;99.90;;;;;;5055424;28;20595;-50
2021/07/03 02:17:51;;;;;;;7.80;7.00;;;15.70;99.90;;;;;;5054949;28;20208;-50
2021/07/03 02:20:17;;;;;;;6.80;6.10;;;15.70;99.90;;;;;;5054861;28;20168;-49
2021/07/03 02:22:42;;;;;;;7.53;6.70;;;15.60;99.90;;;;;;5055457;28;20233;-52
2021/07/03 02:25:08;;;;;;;7.30;6.60;;;15.60;99.90;;;;;;5072613;28;20584;-49
2021/07/03 02:27:34;;;;;;;7.03;6.37;;;15.60;99.90;;;;;;5075114;28;20662;-52
2021/07/03 02:30:01;;;;;;;6.47;5.87;;;15.60;99.90;;;;;;5074702;28;20250;-55
2021/07/03 02:32:27;;;;;;;7.60;6.90;;;15.60;99.90;;;;;;5075174;28;20304;-49
2021/07/03 02:34:52;;;;;;;7.20;6.50;;;15.60;99.90;;;;;;5074008;28;20222;-51
2021/07/03 02:37:18;;;;;;;8.37;7.57;;;15.50;99.90;;;;;;5074843;28;20190;-48
2021/07/03 02:39:43;;;;;;;8.33;7.60;;;15.50;99.90;;;;;;5074706;28;20174;-52
2021/07/03 02:42:09;;;;;;;8.53;7.73;;;15.50;99.90;;;;;;5074361;28;20682;-49
2021/07/03 02:44:35;;;;;;;8.47;7.67;;;15.40;99.90;;;;;;5075385;28;20695;-52
2021/07/03 02:47:01;;;;;;;8.47;7.67;;;15.40;99.90;;;;;;5074637;28;20193;-56
2021/07/03 02:49:26;;;;;;;8.63;7.73;;;15.40;99.90;;;;;;5074560;28;20256;-50
2021/07/03 02:51:52;;;;;;;7.73;7.03;;;15.40;99.90;;;;;;5074226;28;20668;-51
2021/07/03 02:54:18;;;;;;;7.93;7.23;;;15.50;99.90;;;;;;5074717;28;20483;-51
2021/07/03 02:56:43;;;;;;;8.80;7.90;;;15.40;99.90;;;;;;5074811;28;20504;-50
2021/07/03 02:59:09;;;;;;;7.83;7.13;;;15.50;99.90;;;;;;5073769;28;20212;-50
2021/07/03 03:01:34;;;;;;;9.40;8.40;;;15.50;99.90;;;;;;5074298;28;20206;-52
2021/07/03 03:04:00;;;;;;;8.93;8.13;;;15.80;99.90;;;;;;5074080;28;20214;-56
2021/07/03 03:06:26;;;;;;;8.30;7.60;;;15.60;99.90;;;;;;5073387;28;20221;-50
2021/07/03 03:08:51;;;;;;;8.73;7.93;;;15.50;99.90;;;;;;5074395;28;20163;-50
2021/07/03 03:11:17;;;;;;;8.97;8.07;;;15.50;99.90;;;;;;5073948;28;20167;-49
2021/07/03 03:13:43;;;;;;;10.73;9.63;;;15.50;99.90;;;;;;5073737;28;20193;-49
2021/07/03 03:16:09;;;;;;;8.70;7.90;;;15.60;99.90;;;;;;5074345;28;20179;-50
2021/07/03 03:18:34;;;;;;;8.37;7.57;;;15.60;99.90;;;;;;5074139;28;20275;-55
2021/07/03 03:21:00;;;;;;;8.97;7.77;;;15.60;99.90;;;;;;5074179;28;20637;-59
2021/07/03 03:23:25;;;;;;;8.60;7.80;;;15.50;99.90;;;;;;5073165;28;20206;-54
2021/07/03 03:25:52;;;;;;;8.77;7.97;;;15.60;99.90;;;;;;5074214;28;20563;-51
2021/07/03 03:28:17;;;;;;;9.77;8.83;;;15.60;99.90;;;;;;5073533;28;20182;-55
2021/07/03 03:30:43;;;;;;;10.13;9.23;;;15.60;99.90;;;;;;5074679;28;20181;-57
2021/07/03 03:33:08;;;;;;;10.37;8.90;;;15.60;99.90;;;;;;5072751;28;20571;-55
2021/07/03 03:35:34;;;;;;;9.03;8.23;;;15.60;99.90;;;;;;5074120;28;20538;-56
2021/07/03 03:38:00;;;;;;;8.63;7.83;;;15.60;99.90;;;;;;5073511;28;20198;-60
2021/07/03 03:40:27;;;;;;;8.70;7.90;;;15.50;99.90;;;;;;5073712;28;20212;-53
2021/07/03 03:42:56;;;;;;;8.73;7.93;;;15.50;99.90;;;;;;5073707;28;20256;-49
2021/07/03 03:45:22;;;;;;;10.17;9.27;;;15.60;99.90;;;;;;5072856;28;20615;-55
2021/07/03 03:47:48;;;;;;;9.93;8.60;;;15.60;99.90;;;;;;5073587;28;20198;-51
2021/07/03 03:50:13;;;;;;;8.10;6.90;;;15.60;99.90;;;;;;5073084;28;20261;-51
2021/07/03 03:52:39;;;;;;;9.00;8.20;;;15.60;99.90;;;;;;5073771;28;20181;-56
2021/07/03 03:55:07;;;;;;;8.40;7.60;;;15.70;99.90;;;;;;5073787;28;20183;-56
2021/07/03 03:57:32;;;;;;;10.13;8.47;;;15.60;99.90;;;;;;5072664;28;20206;-50
2021/07/03 03:59:59;;;;;;;8.73;7.83;;;15.60;99.90;;;;;;5074332;28;20227;-50
2021/07/03 04:02:26;;;;;;;8.67;7.87;;;15.60;99.90;;;;;;5072388;28;20202;-49
2021/07/03 04:04:52;;;;;;;9.17;8.30;;;15.60;99.90;;;;;;5073768;28;20681;-49
2021/07/03 04:07:21;;;;;;;8.47;7.67;;;15.60;99.90;;;;;;5073896;28;20283;-54
2021/07/03 04:09:48;;;;;;;9.10;8.27;;;15.60;99.90;;;;;;5074104;28;20550;-56
2021/07/03 04:12:14;;;;;;;10.47;9.47;;;15.60;99.90;;;;;;5072754;28;20278;-57
2021/07/03 04:14:40;;;;;;;10.60;9.40;;;15.60;99.90;;;;;;5073790;28;20167;-57
2021/07/03 04:17:05;;;;;;;9.70;8.80;;;15.50;99.90;;;;;;5073657;28;20252;-52
2021/07/03 04:19:32;;;;;;;9.90;9.00;;;15.60;99.90;;;;;;5072796;28;20173;-52
2021/07/03 04:21:58;;;;;;;10.47;9.37;;;15.70;99.90;;;;;;5073448;28;20684;-52
2021/07/03 04:24:24;;;;;;;10.10;9.10;;;15.60;99.90;;;;;;5072470;28;20304;-54
2021/07/03 04:26:49;;;;;;;47.03;11.63;;;15.60;99.90;;;;;;5073820;28;20302;-55
2021/07/03 04:29:15;;;;;;;12.33;10.10;;;15.60;99.90;;;;;;5073147;28;20178;-56
2021/07/03 04:31:41;;;;;;;10.90;9.90;;;15.50;99.90;;;;;;5072435;28;20178;-51
2021/07/03 04:34:06;;;;;;;10.37;9.07;;;15.40;99.90;;;;;;5073565;28;20543;-50
2021/07/03 04:36:32;;;;;;;10.00;9.07;;;15.40;99.90;;;;;;5072235;28;20524;-50
2021/07/03 04:38:57;;;;;;;10.90;9.80;;;15.50;99.90;;;;;;5073477;28;20638;-51
2021/07/03 04:41:23;;;;;;;9.07;8.17;;;15.60;99.90;;;;;;5072704;28;20167;-51
2021/07/03 04:43:48;;;;;;;9.77;8.80;;;15.80;99.90;;;;;;5072790;28;20581;-53
2021/07/03 04:46:14;;;;;;;9.27;8.40;;;15.80;99.90;;;;;;5073239;28;20194;-56
2021/07/03 04:48:40;;;;;;;9.57;8.67;;;15.90;99.90;;;;;;5073086;28;20221;-50
2021/07/03 04:51:05;;;;;;;8.57;7.67;;;15.90;99.90;;;;;;5073515;28;20175;-51
2021/07/03 04:53:31;;;;;;;8.80;7.90;;;15.90;99.90;;;;;;5075152;28;20202;-49
2021/07/03 04:55:56;;;;;;;8.40;7.60;;;16.00;99.90;;;;;;5076819;28;20190;-50
2021/07/03 04:58:22;;;;;;;10.00;9.00;;;16.10;99.90;;;;;;5076014;28;20222;-51
2021/07/03 05:00:48;;;;;;;8.53;7.73;;;16.20;99.90;;;;;;5075541;28;20569;-54
2021/07/03 05:03:13;;;;;;;9.27;8.37;;;16.20;99.90;;;;;;5076520;28;20285;-52
2021/07/03 05:05:39;;;;;;;9.07;8.17;;;16.30;99.90;;;;;;5077109;28;20173;-53
2021/07/03 05:08:04;;;;;;;10.23;7.70;;;16.40;99.90;;;;;;5075719;28;20202;-53
2021/07/03 05:10:30;;;;;;;7.60;6.90;;;16.40;99.90;;;;;;5076774;28;20182;-52
2021/07/03 05:12:56;;;;;;;8.10;7.33;;;16.50;99.90;;;;;;5075701;28;20630;-51
2021/07/03 05:15:22;;;;;;;8.33;7.53;;;16.50;99.90;;;;;;5076671;28;20170;-54
2021/07/03 05:17:47;;;;;;;7.60;6.90;;;16.60;99.90;;;;;;5075018;28;20214;-57
2021/07/03 05:20:14;;;;;;;7.97;7.27;;;16.60;99.90;;;;;;5076485;28;20178;-57
2021/07/03 05:22:40;;;;;;;7.03;6.43;;;16.70;99.90;;;;;;5076491;28;20202;-52
2021/07/03 05:25:07;;;;;;;8.07;7.37;;;16.80;99.90;;;;;;5075499;28;20264;-49
2021/07/03 05:27:32;;;;;;;8.47;7.40;;;16.90;99.90;;;;;;5076700;28;20186;-52
2021/07/03 05:29:58;;;;;;;7.63;6.93;;;16.90;99.90;;;;;;5077245;28;20526;-54
2021/07/03 05:32:23;;;;;;;8.00;7.30;;;17.00;99.90;;;;;;5076173;28;20534;-53
2021/07/03 05:34:49;;;;;;;8.03;7.23;;;17.00;99.90;;;;;;5075051;28;20179;-55
2021/07/03 05:37:15;;;;;;;8.37;7.40;;;17.10;99.90;;;;;;5076170;28;20558;-53
2021/07/03 05:39:40;;;;;;;7.13;6.53;;;17.20;99.90;;;;;;5075619;28;20654;-53
2021/07/03 05:42:06;;;;;;;6.47;5.87;;;17.20;99.90;;;;;;5076292;28;20665;-54
2021/07/03 05:44:31;;;;;;;7.40;6.70;;;17.30;99.90;;;;;;5075990;28;20194;-51
2021/07/03 05:46:57;;;;;;;8.57;7.77;;;17.40;99.90;;;;;;5076028;28;20190;-50
2021/07/03 05:49:23;;;;;;;8.37;7.47;;;17.20;99.90;;;;;;5075244;28;20654;-56
2021/07/03 05:51:48;;;;;;;9.30;8.40;;;17.10;99.90;;;;;;5075512;28;20509;-53
2021/07/03 05:54:15;;;;;;;9.20;8.30;;;17.10;99.90;;;;;;5075888;28;20178;-57
2021/07/03 05:56:41;;;;;;;9.97;8.93;;;16.90;99.90;;;;;;5074971;28;20236;-49
2021/07/03 05:59:06;;;;;;;8.73;7.93;;;16.80;99.90;;;;;;5076487;28;20261;-50
2021/07/03 06:01:32;;;;;;;9.13;8.23;;;17.00;99.90;;;;;;5074694;28;20183;-52
2021/07/03 06:03:58;;;;;;;9.33;8.37;;;17.10;99.90;;;;;;5074897;28;20653;-50
2021/07/03 06:06:23;;;;;;;8.10;7.40;;;17.30;99.90;;;;;;5075739;28;20717;-54
2021/07/03 06:08:49;;;;;;;8.00;7.13;;;17.20;99.90;;;;;;5074589;28;20178;-57
2021/07/03 06:11:15;;;;;;;7.40;6.70;;;17.40;99.90;;;;;;5074605;28;20634;-56
2021/07/03 06:13:41;;;;;;;9.80;8.27;;;17.60;99.90;;;;;;5074756;28;20245;-53
2021/07/03 06:16:07;;;;;;;11.00;8.57;;;17.80;99.90;;;;;;5075371;28;20176;-50
2021/07/03 06:18:33;;;;;;;8.13;7.33;;;17.70;99.90;;;;;;5075199;28;20191;-49
2021/07/03 06:20:59;;;;;;;8.77;7.87;;;17.60;99.90;;;;;;5071069;28;20187;-50
2021/07/03 06:23:27;;;;;;;8.70;7.80;;;17.80;99.90;;;;;;5058817;28;20659;-54
2021/07/03 06:25:54;;;;;;;8.20;7.50;;;17.90;99.90;;;;;;5075250;28;20228;-57
2021/07/03 06:28:19;;;;;;;8.93;8.13;;;18.10;99.90;;;;;;5075128;28;20543;-58
2021/07/03 06:30:45;;;;;;;9.90;9.00;;;18.40;99.90;;;;;;5075376;28;20614;-50
2021/07/03 06:33:11;;;;;;;10.00;9.10;;;18.70;99.90;;;;;;5073912;28;20225;-53
2021/07/03 06:35:37;;;;;;;10.00;9.10;;;18.90;99.90;;;;;;5075811;28;20170;-53
2021/07/03 06:38:03;;;;;;;8.57;7.77;;;18.90;99.90;;;;;;5074258;28;20191;-52
2021/07/03 06:40:30;;;;;;;8.87;8.07;;;19.00;99.90;;;;;;5075289;28;20179;-55
2021/07/03 06:42:56;;;;;;;9.00;8.10;;;19.10;99.90;;;;;;5074635;28;20205;-56
2021/07/03 06:45:22;;;;;;;8.10;7.30;;;19.10;99.90;;;;;;5073862;28;20527;-58
2021/07/03 06:47:47;;;;;;;9.30;8.50;;;19.00;99.90;;;;;;5074697;28;20673;-52
2021/07/03 06:50:13;;;;;;;10.57;9.57;;;19.20;99.90;;;;;;5072730;28;20171;-51
2021/07/03 06:52:38;;;;;;;10.13;9.23;;;19.20;99.90;;;;;;5074804;28;20244;-50
2021/07/03 06:55:04;;;;;;;10.73;9.73;;;19.20;99.90;;;;;;5075313;28;20261;-52
2021/07/03 06:57:30;;;;;;;10.13;9.23;;;19.30;99.90;;;;;;5073522;28;20206;-52
2021/07/03 06:59:55;;;;;;;9.50;8.50;;;19.40;99.90;;;;;;5074735;28;20193;-57
2021/07/03 07:02:21;;;;;;;12.20;10.20;;;19.70;99.90;;;;;;5073142;28;20243;-59
2021/07/03 07:04:46;;;;;;;10.20;9.20;;;19.70;99.90;;;;;;5075200;28;20170;-53
2021/07/03 07:07:12;;;;;;;9.23;8.43;;;19.60;99.90;;;;;;5074396;28;20195;-52
2021/07/03 07:09:37;;;;;;;9.37;8.53;;;19.80;99.90;;;;;;5075259;28;20207;-51
2021/07/03 07:12:03;;;;;;;10.83;9.83;;;19.80;99.90;;;;;;5073804;28;20229;-50
2021/07/03 07:14:29;;;;;;;10.33;9.43;;;20.00;99.90;;;;;;5073385;28;20642;-57
2021/07/03 07:16:54;;;;;;;9.40;8.50;;;20.00;99.90;;;;;;5069604;28;20567;-57
2021/07/03 07:19:20;;;;;;;11.67;10.67;;;20.00;99.90;;;;;;5068868;28;20181;-56
2021/07/03 07:21:46;;;;;;;10.07;9.17;;;20.00;99.90;;;;;;5072351;28;20194;-50
2021/07/03 07:24:11;;;;;;;10.47;9.57;;;19.80;99.90;;;;;;5073804;28;20531;-58
2021/07/03 07:26:38;;;;;;;10.23;9.23;;;19.80;99.90;;;;;;5067328;28;20202;-56
2021/07/03 07:29:04;;;;;;;9.50;8.60;;;19.60;99.90;;;;;;5061613;28;20514;-50
2021/07/03 07:31:30;;;;;;;10.03;9.03;;;19.40;99.90;;;;;;5072845;28;20201;-51
2021/07/03 07:33:56;;;;;;;10.70;9.80;;;19.30;99.90;;;;;;5060698;28;20694;-56
2021/07/03 07:36:21;;;;;;;10.13;9.13;;;19.20;99.90;;;;;;5074420;28;20189;-58
2021/07/03 07:38:47;;;;;;;10.57;9.57;;;19.40;99.90;;;;;;5072579;28;20206;-56
2021/07/03 07:41:15;;;;;;;10.27;9.27;;;19.30;99.90;;;;;;5073814;28;20524;-52
2021/07/03 07:43:41;;;;;;;10.70;9.70;;;19.30;99.90;;;;;;5073484;28;20662;-52
2021/07/03 07:46:06;;;;;;;10.30;9.30;;;19.20;99.90;;;;;;5073386;28;20171;-52
2021/07/03 07:48:33;;;;;;;11.77;10.60;;;19.10;99.90;;;;;;5073460;28;20658;-55
2021/07/03 07:51:02;;;;;;;10.13;9.10;;;19.00;99.90;;;;;;5073806;28;20181;-57
2021/07/03 07:53:29;;;;;;;9.63;8.83;;;19.20;99.90;;;;;;5063053;28;20195;-52
2021/07/03 07:55:56;;;;;;;9.73;8.83;;;19.10;99.90;;;;;;5054780;28;20179;-53
2021/07/03 07:58:22;;;;;;;11.07;9.97;;;19.10;99.90;;;;;;5053936;28;20901;-51
2021/07/03 08:00:47;;;;;;;10.07;9.07;;;19.20;99.90;;;;;;5053366;28;20201;-53
2021/07/03 08:03:13;;;;;;;9.70;8.70;;;19.20;99.90;;;;;;5054257;28;20210;-51
2021/07/03 08:05:38;;;;;;;9.60;8.70;;;19.30;99.90;;;;;;5067759;28;20179;-53
2021/07/03 08:08:08;;;;;;;9.47;8.57;;;19.30;99.90;;;;;;5063552;28;20221;-56
2021/07/03 08:10:34;;;;;;;10.10;8.90;;;19.50;99.90;;;;;;5071074;28;20704;-50
2021/07/03 08:13:00;;;;;;;9.80;7.97;;;19.50;99.90;;;;;;5058909;28;20177;-52
2021/07/03 08:15:26;;;;;;;8.67;7.87;;;19.60;99.90;;;;;;5066816;28;20253;-55
2021/07/03 08:17:51;;;;;;;8.77;7.90;;;19.90;99.90;;;;;;5072538;28;20207;-55
2021/07/03 08:20:21;;;;;;;9.20;7.60;;;20.10;99.90;;;;;;5068297;28;20171;-52
2021/07/03 08:22:49;;;;;;;9.23;8.30;;;20.20;99.90;;;;;;5052444;28;20662;-52
2021/07/03 08:25:15;;;;;;;9.40;8.47;;;20.30;99.90;;;;;;5061434;28;20174;-56
2021/07/03 08:27:41;;;;;;;10.10;9.10;;;20.40;99.90;;;;;;5075237;28;20202;-50
2021/07/03 08:30:07;;;;;;;9.67;8.77;;;20.40;99.90;;;;;;5069278;28;20206;-57
2021/07/03 08:32:33;;;;;;;10.20;9.20;;;20.50;99.90;;;;;;5056349;28;20179;-57
2021/07/03 08:34:59;;;;;;;10.23;8.93;;;20.40;99.90;;;;;;5061849;28;20187;-53
2021/07/03 08:37:25;;;;;;;9.53;8.53;;;20.50;99.90;;;;;;5076934;28;20581;-53
2021/07/03 08:39:50;;;;;;;11.43;8.77;;;20.50;99.90;;;;;;5073320;28;20697;-52
2021/07/03 08:42:16;;;;;;;10.93;9.83;;;20.40;99.90;;;;;;5076715;28;20170;-53
2021/07/03 08:44:49;;;;;;;10.67;9.63;;;20.00;99.90;;;;;;5075885;28;20218;-55
2021/07/03 08:47:16;;;;;;;10.60;9.60;;;20.20;99.90;;;;;;5076212;28;20226;-50
2021/07/03 08:49:48;;;;;;;9.93;9.03;;;20.10;99.90;;;;;;5076425;28;20267;-51
2021/07/03 08:52:14;;;;;;;10.33;9.43;;;20.30;99.90;;;;;;5075200;28;20194;-54
2021/07/03 08:54:39;;;;;;;10.50;9.27;;;20.50;99.90;;;;;;5072832;28;20186;-50
2021/07/03 08:57:05;;;;;;;9.27;8.37;;;20.60;99.90;;;;;;5076645;28;20194;-50
2021/07/03 08:59:31;;;;;;;9.30;8.37;;;20.60;99.90;;;;;;5075778;28;20187;-57
2021/07/03 09:01:59;;;;;;;9.27;8.13;;;20.60;99.90;;;;;;5076446;28;20225;-52
2021/07/03 09:04:38;;;;;;;9.30;8.20;;;20.60;99.90;;;;;;5057855;28;20268;-54
2021/07/03 09:07:14;;;;;;;8.20;7.40;;;20.60;99.90;;;;;;5068926;28;20213;-55
2021/07/03 09:11:31;;;;;;;8.32;7.47;;;20.80;99.90;;;;;;5088205;27;20526;-57
2021/07/03 09:14:07;;;;;;;8.40;7.22;;;20.80;99.90;;;;;;5090772;28;20258;-54
2021/07/03 09:16:34;;;;;;;6.57;5.90;;;20.70;99.90;;;;;;5088057;28;20186;-55
2021/07/03 09:19:01;;;;;;;7.03;6.32;;;20.70;99.90;;;;;;5070669;28;20175;-53
2021/07/03 09:21:28;;;;;;;6.50;5.85;;;20.70;99.90;;;;;;5069600;28;20165;-54
2021/07/03 09:23:54;;;;;;;6.47;5.63;;;20.80;99.90;;;;;;5071046;28;20234;-56
2021/07/03 09:26:20;;;;;;;8.32;6.05;;;;;;;;;;5070695;28;20174;-56
2021/07/03 09:28:48;;;;;;;7.32;6.53;;;21.20;99.90;;;;;;5069650;28;20188;-53
2021/07/03 09:31:17;;;;;;;6.85;5.40;;;20.80;99.90;;;;;;5070385;28;20512;-57
2021/07/03 09:33:50;;;;;;;6.20;5.60;;;20.90;99.90;;;;;;5070243;28;20176;-55
2021/07/03 09:36:36;;;;;;;6.10;5.18;;;21.60;99.90;;;;;;5070706;28;20707;-52
2021/07/03 09:39:01;;;;;;;6.90;5.35;;;20.70;99.90;;;;;;5070364;28;20197;-53
2021/07/03 09:41:35;;;;;;;8.02;4.75;;;20.80;99.90;;;;;;5070144;28;20204;-51
2021/07/03 09:44:10;;;;;;;7.90;5.78;;;20.90;99.90;;;;;;5067920;28;20191;-55
2021/07/03 09:46:51;;;;;;;7.40;5.05;;;21.20;99.90;;;;;;5069482;28;20260;-53
2021/07/03 09:49:19;;;;;;;5.93;4.70;;;21.10;99.90;;;;;;5069039;28;20605;-57
2021/07/03 09:51:53;;;;;;;6.00;4.70;;;21.40;99.90;;;;;;5066486;28;20515;-55
2021/07/03 09:54:24;;;;;;;5.85;5.30;;;21.60;99.90;;;;;;5055521;28;20191;-52
2021/07/03 09:56:59;;;;;;;5.22;4.78;;;21.70;99.90;;;;;;5061668;28;20732;-55
2021/07/03 09:59:33;;;;;;;5.22;4.72;;;21.70;99.90;;;;;;5050853;28;20171;-52
2021/07/03 10:01:59;;;;;;;5.32;4.68;;;21.70;99.90;;;;;;5056459;28;20232;-55
2021/07/03 10:04:25;;;;;;;5.65;4.82;;;21.70;99.90;;;;;;5064067;28;20174;-54
2021/07/03 10:06:59;;;;;;;5.90;4.75;;;21.80;99.90;;;;;;5069459;28;20269;-53
2021/07/03 10:09:33;;;;;;;5.00;4.50;;;21.70;99.90;;;;;;5069750;28;20202;-53
2021/07/03 10:12:04;;;;;;;4.68;4.28;;;21.90;99.90;;;;;;5064655;28;21696;-56
2021/07/03 10:14:39;;;;;;;4.50;4.10;;;22.10;99.90;;;;;;5062162;28;20175;-55
2021/07/03 10:17:05;;;;;;;5.30;4.60;;;21.90;99.90;;;;;;5067977;28;20205;-51
2021/07/03 10:19:35;;;;;;;5.25;4.40;;;22.00;99.90;;;;;;5068000;28;20175;-55
2021/07/03 10:22:15;;;;;;;4.70;4.28;;;22.00;99.90;;;;;;5058927;28;20202;-56
2021/07/03 10:25:10;;;;;;;5.20;4.25;;;22.30;99.90;;;;;;5055172;28;20190;-58
2021/07/03 10:27:36;;;;;;;4.95;4.25;;;22.40;99.90;;;;;;5055891;28;20195;-53
2021/07/03 10:30:06;;;;;;;4.57;4.20;;;22.10;99.90;;;;;;5055311;28;20195;-56
2021/07/03 10:32:34;;;;;;;4.88;4.43;;;22.40;99.90;;;;;;5055604;28;20154;-58
2021/07/03 10:35:18;;;;;;;4.90;4.40;;;22.40;99.90;;;;;;5055977;28;20182;-57
2021/07/03 10:37:45;;;;;;;4.82;4.35;;;22.50;99.90;;;;;;5054964;28;20203;-57
2021/07/03 10:40:25;;;;;;;6.78;4.10;;;22.80;99.90;;;;;;5055502;28;20183;-57
2021/07/03 10:43:05;;;;;;;4.68;4.28;;;22.30;99.90;;;;;;5039564;28;20261;-53
2021/07/03 10:45:31;;;;;;;4.60;4.20;;;22.40;99.90;;;;;;5049232;28;20179;-52
2021/07/03 10:47:56;;;;;;;4.65;4.25;;;23.20;99.90;;;;;;5043486;28;20226;-58
2021/07/03 10:50:28;;;;;;;5.40;4.22;;;23.60;99.90;;;;;;5044192;28;20217;-51
2021/07/03 10:52:55;;;;;;;5.20;4.68;;;23.30;99.90;;;;;;5052918;28;20492;-52
2021/07/03 10:55:30;;;;;;;5.20;4.65;;;23.30;99.90;;;;;;5036703;28;20183;-54
2021/07/03 10:57:59;;;;;;;4.88;4.03;;;23.10;99.90;;;;;;5053982;28;20226;-56
2021/07/03 11:00:25;;;;;;;4.97;4.00;;;23.10;99.90;;;;;;5053163;28;20203;-51
2021/07/03 11:02:51;;;;;;;4.65;4.18;;;23.40;99.90;;;;;;5054771;28;20174;-54
2021/07/03 11:05:18;;;;;;;4.38;3.97;;;22.50;99.90;;;;;;5054638;28;20183;-58
2021/07/03 11:07:47;;;;;;;5.32;4.35;;;23.60;99.90;;;;;;5054643;28;20248;-54
2021/07/03 11:10:26;;;;;;;4.55;4.03;;;23.10;99.90;;;;;;5054192;28;20211;-52
2021/07/03 11:12:54;;;;;;;7.22;4.13;;;23.90;99.90;;;;;;5053669;28;20199;-56
2021/07/03 11:15:24;;;;;;;5.00;4.47;;;23.90;99.90;;;;;;5055118;28;20528;-59
2021/07/03 11:17:50;;;;;;;5.05;4.53;;;24.20;99.90;;;;;;5054228;28;20289;-55
2021/07/03 11:20:42;;;;;;;4.30;3.90;;;24.50;99.90;;;;;;5054235;28;20187;-56
2021/07/03 11:23:10;;;;;;;3.90;3.50;;;25.40;99.90;;;;;;5050207;28;20552;-52
2021/07/03 11:25:46;;;;;;;4.10;3.67;;;25.50;99.90;;;;;;5055377;28;20199;-55
2021/07/03 11:28:20;;;;;;;3.65;3.35;;;24.70;99.90;;;;;;5054117;28;20213;-55
2021/07/03 11:30:52;;;;;;;4.05;3.65;;;24.70;99.90;;;;;;5055220;28;20198;-54
2021/07/03 11:33:18;;;;;;;3.97;3.60;;;;;;;;;;5054046;28;20203;-56
2021/07/03 11:35:46;;;;;;;4.00;3.38;;;24.00;99.90;;;;;;5054807;28;20178;-54
2021/07/03 11:38:19;;;;;;;3.95;3.65;;;24.30;99.90;;;;;;5054970;28;20203;-54
2021/07/03 11:40:44;;;;;;;3.50;3.30;;;23.70;99.90;;;;;;5055049;28;20225;-53
2021/07/03 11:43:10;;;;;;;5.47;3.65;;;24.10;99.90;;;;;;5053623;28;20191;-50
2021/07/03 11:45:39;;;;;;;3.83;3.45;;;24.10;99.90;;;;;;5054625;28;20697;-54
2021/07/03 11:48:12;;;;;;;3.80;3.50;;;24.00;99.90;;;;;;5054312;28;20202;-55
2021/07/03 11:50:42;;;;;;;4.05;3.53;;;23.60;99.90;;;;;;5054635;28;20202;-50
2021/07/03 11:53:10;;;;;;;6.90;3.72;;;23.20;99.90;;;;;;5037170;28;20184;-51
2021/07/03 11:55:44;;;;;;;4.57;3.42;;;24.00;99.90;;;;;;5053336;28;20521;-54
2021/07/03 11:58:12;;;;;;;4.18;3.72;;;23.70;99.90;;;;;;5052751;28;20195;-54
2021/07/03 12:00:43;;;;;;;3.88;3.40;;;23.70;99.90;;;;;;5051671;28;20187;-57
2021/07/03 12:03:11;;;;;;;4.97;3.60;;;23.10;99.90;;;;;;5052491;28;20281;-56
2021/07/03 12:05:38;;;;;;;3.70;3.40;;;24.20;99.90;;;;;;5051707;28;20865;-56
2021/07/03 12:08:06;;;;;;;3.88;3.30;;;24.00;99.90;;;;;;5051361;28;20191;-52
2021/07/03 12:10:36;;;;;;;3.85;3.45;;;24.10;99.90;;;;;;5052584;28;20259;-53
2021/07/03 12:13:08;;;;;;;3.80;3.50;;;24.40;99.90;;;;;;5051955;28;20190;-55
2021/07/03 12:15:34;;;;;;;6.60;3.75;;;23.80;99.90;;;;;;5037141;28;20175;-55
2021/07/03 12:18:00;;;;;;;3.92;3.55;;;23.60;99.90;;;;;;5053913;28;20321;-58
2021/07/03 12:20:26;;;;;;;4.55;3.53;;;23.90;99.90;;;;;;5054086;28;20261;-58
2021/07/03 12:23:00;;;;;;;3.80;3.50;;;23.90;99.80;;;;;;5053861;28;20179;-55
2021/07/03 12:25:27;;;;;;;3.83;3.40;;;23.90;99.90;;;;;;5053050;28;20193;-58
2021/07/03 12:27:59;;;;;;;3.67;3.38;;;24.20;99.90;;;;;;5054568;28;20199;-57
2021/07/03 12:30:26;;;;;;;3.72;3.42;;;24.30;99.90;;;;;;5052394;28;20195;-56
2021/07/03 12:33:20;;;;;;;3.72;3.42;;;24.10;99.90;;;;;;5053853;28;20167;-57
2021/07/03 12:35:52;;;;;;;4.10;3.70;;;25.00;99.90;;;;;;4972459;28;20197;-53
2021/07/03 12:38:26;;;;;;;3.90;3.50;;;24.20;99.90;;;;;;4972793;28;20193;-52
2021/07/03 12:40:53;;;;;;;3.72;3.30;;;24.30;99.90;;;;;;4972729;28;20283;-60
2021/07/03 12:43:28;;;;;;;4.50;3.72;;;24.60;99.90;;;;;;4972142;28;20178;-54
2021/07/03 12:46:05;;;;;;;5.07;3.55;;;24.30;99.90;;;;;;4973211;28;20182;-55
2021/07/03 12:48:38;;;;;;;3.22;3.03;;;24.80;99.90;;;;;;4972797;28;20228;-58